x

Sand Key, Fl (sanf1) Weather Station

11:50pm - Sat 19th Aug 2017 All times are CDT. -4 hours from GMT.

  • Wind
    14mph, 16mph gusts
  • Air Temp 83°f
  • Sea Pressure 1015.2mb
  • Sand Key, Fl
  • Sand Key, Fl

More Historic Weather Station data

Upgrade to MSW Pro to gain access to the past 30 days of data for over 8000 Wavebouys and Weather Stations around the globe.

Join

Comparision Forecast

View Surf forecast
   
Sat 08/19 11:50pm 14 16 mph 1015.2mb 83f
10:50pm 18 23 mph 1015.5mb 83f
9:50pm 9 11 mph 1015.4mb 82f
8:50pm 9 11 mph 1014.6mb 86f
7:50pm  -  mph 1013.8mb 83f
6:50pm 11 15 mph 1013.8mb 87f
5:50pm 13 16 mph 1013.5mb 87f
4:50pm 11 14 mph 1013.9mb 86f
3:50pm 11 17 mph 1014.4mb 85f
2:50pm 15 18 mph 1015.2mb 85f
1:50pm 14 17 mph 1015.8mb 86f
12:50pm 11 14 mph 1016.1mb 86f
11:50am  -  mph 1016.2mb 86f
10:50am  -  mph 1016.2mb 85f
9:50am  -  mph 1016.2mb 85f
8:50am  -  mph 1015.7mb 85f
7:50am 5 8 mph 1015.5mb 85f
6:50am  -  mph 1014.9mb 84f
5:50am  -  mph 1014.2mb 84f
4:50am  -  mph 1014.5mb 84f
3:50am  -  mph 1014.4mb 83f
2:50am 10 11 mph 1015.2mb 83f
1:50am 16 17 mph 1015.8mb 83f
12:50am 29 32 mph 1017.8mb 82f
Fri 08/18 11:50pm 13 15 mph 1017.5mb 85f
10:50pm 10 13 mph 1017.4mb 85f
9:50pm 8 9 mph 1016.9mb 85f
8:50pm 8 9 mph 1016.3mb 85f
7:50pm 6 9 mph 1016.1mb 85f
6:50pm 5 6 mph 1015.5mb 85f
5:50pm 9 11 mph 1015.7mb 85f
4:50pm 9 10 mph 1015.2mb 85f
3:50pm 8 11 mph 1015.7mb 85f
2:50pm 9 13 mph 1016.4mb 85f
1:50pm 8 10 mph 1016.8mb 86f
12:50pm 6 8 mph 1017.2mb 85f
11:50am 7 10 mph 1017.5mb 85f
10:50am 8 9 mph 1017.4mb 85f
9:50am 5 6 mph 1017.3mb 86f
8:50am 7 8 mph 1016.7mb 85f
7:50am 10 11 mph 1016.4mb 85f
6:50am  -  mph 1015.9mb 85f
5:50am  -  mph 1015.6mb 84f
4:50am  -  mph 1015.3mb 85f
3:50am  -  mph 1015.8mb 85f
2:50am 15 17 mph 1016.1mb 85f
1:50am  -  mph 1017.2mb 84f
12:50am  -  mph 1017.8mb 85f
Thu 08/17 11:50pm 1 6 mph 1018.8mb 85f
10:50pm  -  mph 1018.1mb 85f
9:50pm  -  mph 1018.1mb 85f
8:50pm  -  mph 1017.5mb 85f
7:50pm 2 7 mph 1017.4mb 85f
6:50pm 8 10 mph 1016.9mb 85f
5:50pm 8 10 mph 1016.7mb 86f
4:50pm 9 10 mph 1016.9mb 86f
3:50pm 10 11 mph 1017.4mb 85f
2:50pm 11 14 mph 1018.1mb 85f
1:50pm 2 5 mph 1018.3mb 85f
12:50pm 11 13 mph 1018.9mb 85f
11:50am 11 14 mph 1019.4mb 86f
10:50am  -  mph 1019.3mb 86f
9:50am 11 14 mph 1018.9mb 86f
8:50am 9 11 mph 1018.7mb 86f
7:50am 7 9 mph 1018.3mb 85f
6:50am 10 13 mph 1017.7mb 85f
5:50am 13 15 mph 1017.4mb 85f
4:50am 13 14 mph 1017.2mb 85f
3:50am 15 17 mph 1017.4mb 85f
2:50am 11 14 mph 1017.6mb 85f
1:50am 13 15 mph 1018.2mb 85f
12:50am 13 15 mph 1018.8mb 86f
Wed 08/16 11:50pm 14 16 mph 1019mb 86f
10:50pm 14 16 mph 1018.8mb 86f
9:50pm 13 15 mph 1018.7mb 86f
8:50pm 13 15 mph 1018.1mb 86f
7:50pm 13 15 mph 1017.6mb 86f
6:50pm 11 14 mph 1017.5mb 86f
5:50pm 11 14 mph 1017.2mb 86f
4:50pm 11 14 mph 1017.6mb 86f
3:50pm 10 13 mph 1017.8mb 86f
2:50pm 10 11 mph 1018.3mb 86f
1:50pm 9 11 mph 1018.9mb 86f
12:50pm 8 10 mph 1019.2mb 86f
11:50am 10 13 mph 1019.5mb 86f
10:50am 6 8 mph 1019.4mb 86f
9:50am 9 10 mph 1019.1mb 85f
8:50am 7 9 mph 1018.8mb 84f
7:50am 10 13 mph 1018.2mb 85f
6:50am 9 15 mph 1017.6mb 85f
5:50am 11 15 mph 1017.3mb 85f